sensor_id;sensor_type;location;lat;lon;timestamp;P1;durP1;ratioP1;P2;durP2;ratioP2
24739;SDS011;45234;48.148;17.128;2023-02-25T00:01:33;48.80;;;29.88;;
24739;SDS011;45234;48.148;17.128;2023-02-25T00:04:00;46.22;;;27.48;;
24739;SDS011;45234;48.148;17.128;2023-02-25T00:06:27;45.95;;;27.27;;
24739;SDS011;45234;48.148;17.128;2023-02-25T00:08:54;35.30;;;20.35;;
24739;SDS011;45234;48.148;17.128;2023-02-25T00:11:22;36.22;;;19.30;;
24739;SDS011;45234;48.148;17.128;2023-02-25T00:13:50;26.10;;;14.73;;
24739;SDS011;45234;48.148;17.128;2023-02-25T00:16:18;17.77;;;8.55;;
24739;SDS011;45234;48.148;17.128;2023-02-25T00:18:51;15.70;;;5.93;;
24739;SDS011;45234;48.148;17.128;2023-02-25T00:21:19;13.07;;;5.20;;
24739;SDS011;45234;48.148;17.128;2023-02-25T00:23:49;12.68;;;4.53;;
24739;SDS011;45234;48.148;17.128;2023-02-25T00:26:18;11.82;;;4.40;;
24739;SDS011;45234;48.148;17.128;2023-02-25T00:28:45;14.57;;;3.95;;
24739;SDS011;45234;48.148;17.128;2023-02-25T00:31:20;8.88;;;3.35;;
24739;SDS011;45234;48.148;17.128;2023-02-25T00:33:50;11.60;;;3.70;;
24739;SDS011;45234;48.148;17.128;2023-02-25T00:36:21;12.05;;;3.10;;
24739;SDS011;45234;48.148;17.128;2023-02-25T00:38:50;9.60;;;3.22;;
24739;SDS011;45234;48.148;17.128;2023-02-25T00:41:20;12.45;;;3.85;;
24739;SDS011;45234;48.148;17.128;2023-02-25T00:43:50;15.93;;;3.22;;
24739;SDS011;45234;48.148;17.128;2023-02-25T00:46:20;10.73;;;3.08;;
24739;SDS011;45234;48.148;17.128;2023-02-25T00:48:50;9.38;;;2.40;;
24739;SDS011;45234;48.148;17.128;2023-02-25T00:51:18;10.02;;;2.78;;
24739;SDS011;45234;48.148;17.128;2023-02-25T00:53:48;8.77;;;2.47;;
24739;SDS011;45234;48.148;17.128;2023-02-25T00:56:15;6.35;;;2.55;;
24739;SDS011;45234;48.148;17.128;2023-02-25T00:58:45;6.30;;;2.10;;
24739;SDS011;45234;48.148;17.128;2023-02-25T01:01:34;11.45;;;2.30;;
24739;SDS011;45234;48.148;17.128;2023-02-25T01:04:03;6.72;;;2.50;;
24739;SDS011;45234;48.148;17.128;2023-02-25T01:06:31;6.78;;;2.55;;
24739;SDS011;45234;48.148;17.128;2023-02-25T01:09:01;12.18;;;2.83;;
24739;SDS011;45234;48.148;17.128;2023-02-25T01:11:31;9.95;;;2.88;;
24739;SDS011;45234;48.148;17.128;2023-02-25T01:14:01;6.43;;;2.03;;
24739;SDS011;45234;48.148;17.128;2023-02-25T01:16:32;4.85;;;2.00;;
24739;SDS011;45234;48.148;17.128;2023-02-25T01:19:03;8.00;;;1.55;;
24739;SDS011;45234;48.148;17.128;2023-02-25T01:21:33;7.70;;;1.90;;
24739;SDS011;45234;48.148;17.128;2023-02-25T01:24:04;6.40;;;1.60;;
24739;SDS011;45234;48.148;17.128;2023-02-25T01:26:36;2.83;;;1.27;;
24739;SDS011;45234;48.148;17.128;2023-02-25T01:29:06;6.20;;;1.77;;
24739;SDS011;45234;48.148;17.128;2023-02-25T01:31:34;5.68;;;1.70;;
24739;SDS011;45234;48.148;17.128;2023-02-25T01:34:03;6.53;;;1.83;;
24739;SDS011;45234;48.148;17.128;2023-02-25T01:36:32;4.68;;;1.73;;
24739;SDS011;45234;48.148;17.128;2023-02-25T01:38:59;3.78;;;1.63;;
24739;SDS011;45234;48.148;17.128;2023-02-25T01:41:28;11.02;;;2.60;;
24739;SDS011;45234;48.148;17.128;2023-02-25T01:44:07;6.10;;;2.10;;
24739;SDS011;45234;48.148;17.128;2023-02-25T01:46:43;8.38;;;2.85;;
24739;SDS011;45234;48.148;17.128;2023-02-25T01:49:14;8.13;;;2.42;;
24739;SDS011;45234;48.148;17.128;2023-02-25T01:51:55;5.38;;;2.10;;
24739;SDS011;45234;48.148;17.128;2023-02-25T01:54:27;5.22;;;2.20;;
24739;SDS011;45234;48.148;17.128;2023-02-25T01:56:55;3.80;;;1.77;;
24739;SDS011;45234;48.148;17.128;2023-02-25T01:59:24;5.82;;;2.10;;
24739;SDS011;45234;48.148;17.128;2023-02-25T02:01:53;6.80;;;2.83;;
24739;SDS011;45234;48.148;17.128;2023-02-25T02:04:21;7.68;;;2.13;;
24739;SDS011;45234;48.148;17.128;2023-02-25T02:06:51;5.97;;;2.17;;
24739;SDS011;45234;48.148;17.128;2023-02-25T02:09:20;6.05;;;2.42;;
24739;SDS011;45234;48.148;17.128;2023-02-25T02:11:52;5.97;;;2.25;;
24739;SDS011;45234;48.148;17.128;2023-02-25T02:14:39;6.18;;;2.60;;
24739;SDS011;45234;48.148;17.128;2023-02-25T02:28:57;8.07;;;4.85;;
24739;SDS011;45234;48.148;17.128;2023-02-25T02:31:53;8.10;;;5.15;;
24739;SDS011;45234;48.148;17.128;2023-02-25T02:34:42;8.10;;;4.07;;
24739;SDS011;45234;48.148;17.128;2023-02-25T02:45:27;7.93;;;3.78;;
24739;SDS011;45234;48.148;17.128;2023-02-25T02:51:11;5.75;;;3.33;;
24739;SDS011;45234;48.148;17.128;2023-02-25T02:53:49;6.35;;;2.97;;
24739;SDS011;45234;48.148;17.128;2023-02-25T02:56:20;5.10;;;2.90;;
24739;SDS011;45234;48.148;17.128;2023-02-25T02:58:51;4.65;;;2.72;;
24739;SDS011;45234;48.148;17.128;2023-02-25T03:01:36;6.65;;;2.80;;
24739;SDS011;45234;48.148;17.128;2023-02-25T03:04:12;3.80;;;2.60;;
24739;SDS011;45234;48.148;17.128;2023-02-25T03:06:42;5.85;;;2.80;;
24739;SDS011;45234;48.148;17.128;2023-02-25T03:11:40;4.97;;;2.80;;
24739;SDS011;45234;48.148;17.128;2023-02-25T03:14:10;3.63;;;2.10;;
24739;SDS011;45234;48.148;17.128;2023-02-25T03:16:38;5.07;;;2.17;;
24739;SDS011;45234;48.148;17.128;2023-02-25T03:19:14;3.63;;;1.92;;
24739;SDS011;45234;48.148;17.128;2023-02-25T03:21:49;4.40;;;2.17;;
24739;SDS011;45234;48.148;17.128;2023-02-25T03:24:21;2.90;;;2.08;;
24739;SDS011;45234;48.148;17.128;2023-02-25T03:26:54;2.30;;;1.70;;
24739;SDS011;45234;48.148;17.128;2023-02-25T03:29:22;2.40;;;1.52;;
24739;SDS011;45234;48.148;17.128;2023-02-25T03:32:04;1.60;;;1.27;;
24739;SDS011;45234;48.148;17.128;2023-02-25T03:34:37;3.83;;;1.50;;
24739;SDS011;45234;48.148;17.128;2023-02-25T03:37:14;2.45;;;1.30;;
24739;SDS011;45234;48.148;17.128;2023-02-25T03:39:49;2.58;;;1.00;;
24739;SDS011;45234;48.148;17.128;2023-02-25T03:42:22;1.30;;;1.00;;
24739;SDS011;45234;48.148;17.128;2023-02-25T03:44:58;1.73;;;1.08;;
24739;SDS011;45234;48.148;17.128;2023-02-25T03:47:29;1.77;;;1.30;;
24739;SDS011;45234;48.148;17.128;2023-02-25T03:50:21;2.08;;;1.40;;
24739;SDS011;45234;48.148;17.128;2023-02-25T03:52:54;2.15;;;1.55;;
24739;SDS011;45234;48.148;17.128;2023-02-25T03:55:39;2.08;;;1.50;;
24739;SDS011;45234;48.148;17.128;2023-02-25T03:58:07;2.50;;;1.65;;
24739;SDS011;45234;48.148;17.128;2023-02-25T04:00:34;1.90;;;1.50;;
24739;SDS011;45234;48.148;17.128;2023-02-25T04:03:02;3.13;;;1.58;;
24739;SDS011;45234;48.148;17.128;2023-02-25T04:05:30;2.00;;;1.45;;
24739;SDS011;45234;48.148;17.128;2023-02-25T04:07:57;1.70;;;1.40;;
24739;SDS011;45234;48.148;17.128;2023-02-25T04:10:28;1.50;;;1.20;;
24739;SDS011;45234;48.148;17.128;2023-02-25T04:12:55;1.75;;;1.05;;
24739;SDS011;45234;48.148;17.128;2023-02-25T04:15:22;0.90;;;0.60;;
24739;SDS011;45234;48.148;17.128;2023-02-25T04:17:52;0.98;;;0.70;;
24739;SDS011;45234;48.148;17.128;2023-02-25T04:20:19;1.58;;;0.65;;
24739;SDS011;45234;48.148;17.128;2023-02-25T04:22:45;2.45;;;0.93;;
24739;SDS011;45234;48.148;17.128;2023-02-25T04:25:12;1.38;;;0.60;;
24739;SDS011;45234;48.148;17.128;2023-02-25T04:27:39;1.13;;;0.60;;
24739;SDS011;45234;48.148;17.128;2023-02-25T04:30:06;0.82;;;0.50;;
24739;SDS011;45234;48.148;17.128;2023-02-25T04:32:35;2.05;;;0.57;;
24739;SDS011;45234;48.148;17.128;2023-02-25T04:35:01;1.38;;;0.70;;
24739;SDS011;45234;48.148;17.128;2023-02-25T04:37:31;2.55;;;0.70;;
24739;SDS011;45234;48.148;17.128;2023-02-25T04:39:58;0.95;;;0.65;;
24739;SDS011;45234;48.148;17.128;2023-02-25T04:42:24;2.72;;;0.63;;
24739;SDS011;45234;48.148;17.128;2023-02-25T04:44:51;1.00;;;0.60;;
24739;SDS011;45234;48.148;17.128;2023-02-25T04:47:18;1.30;;;0.57;;
24739;SDS011;45234;48.148;17.128;2023-02-25T04:49:45;1.50;;;0.85;;
24739;SDS011;45234;48.148;17.128;2023-02-25T04:52:15;2.38;;;0.68;;
24739;SDS011;45234;48.148;17.128;2023-02-25T04:54:42;1.25;;;0.60;;
24739;SDS011;45234;48.148;17.128;2023-02-25T04:57:09;2.53;;;0.57;;
24739;SDS011;45234;48.148;17.128;2023-02-25T04:59:36;1.05;;;0.50;;
24739;SDS011;45234;48.148;17.128;2023-02-25T05:02:03;0.90;;;0.68;;
24739;SDS011;45234;48.148;17.128;2023-02-25T05:04:32;0.60;;;0.50;;
24739;SDS011;45234;48.148;17.128;2023-02-25T05:07:00;0.63;;;0.50;;
24739;SDS011;45234;48.148;17.128;2023-02-25T05:09:28;0.50;;;0.40;;
24739;SDS011;45234;48.148;17.128;2023-02-25T05:11:55;0.93;;;0.55;;
24739;SDS011;45234;48.148;17.128;2023-02-25T05:14:22;1.27;;;0.77;;
24739;SDS011;45234;48.148;17.128;2023-02-25T05:16:48;0.88;;;0.70;;
24739;SDS011;45234;48.148;17.128;2023-02-25T05:19:17;1.38;;;0.85;;
24739;SDS011;45234;48.148;17.128;2023-02-25T05:21:49;1.05;;;0.68;;
24739;SDS011;45234;48.148;17.128;2023-02-25T05:24:17;1.50;;;0.80;;
24739;SDS011;45234;48.148;17.128;2023-02-25T05:26:44;1.20;;;0.80;;
24739;SDS011;45234;48.148;17.128;2023-02-25T05:29:11;2.28;;;1.10;;
24739;SDS011;45234;48.148;17.128;2023-02-25T05:31:38;2.03;;;0.95;;
24739;SDS011;45234;48.148;17.128;2023-02-25T05:34:05;1.48;;;0.70;;
24739;SDS011;45234;48.148;17.128;2023-02-25T05:36:32;1.80;;;0.80;;
24739;SDS011;45234;48.148;17.128;2023-02-25T05:38:58;1.42;;;0.95;;
24739;SDS011;45234;48.148;17.128;2023-02-25T05:41:28;1.55;;;1.00;;
24739;SDS011;45234;48.148;17.128;2023-02-25T05:43:55;1.73;;;1.33;;
24739;SDS011;45234;48.148;17.128;2023-02-25T05:46:23;3.58;;;1.23;;
24739;SDS011;45234;48.148;17.128;2023-02-25T05:48:51;1.10;;;0.90;;
24739;SDS011;45234;48.148;17.128;2023-02-25T05:51:19;2.33;;;0.90;;
24739;SDS011;45234;48.148;17.128;2023-02-25T05:53:48;3.25;;;0.93;;
24739;SDS011;45234;48.148;17.128;2023-02-25T05:56:17;1.60;;;0.82;;
24739;SDS011;45234;48.148;17.128;2023-02-25T05:58:46;1.23;;;0.77;;
24739;SDS011;45234;48.148;17.128;2023-02-25T06:01:14;1.33;;;0.90;;
24739;SDS011;45234;48.148;17.128;2023-02-25T06:03:44;1.10;;;0.80;;
24739;SDS011;45234;48.148;17.128;2023-02-25T06:06:14;0.70;;;0.60;;
24739;SDS011;45234;48.148;17.128;2023-02-25T06:08:48;1.95;;;0.52;;
24739;SDS011;45234;48.148;17.128;2023-02-25T06:11:17;1.20;;;0.70;;
24739;SDS011;45234;48.148;17.128;2023-02-25T06:13:49;1.48;;;0.50;;
24739;SDS011;45234;48.148;17.128;2023-02-25T06:16:17;1.77;;;0.50;;
24739;SDS011;45234;48.148;17.128;2023-02-25T06:18:44;0.90;;;0.70;;
24739;SDS011;45234;48.148;17.128;2023-02-25T06:21:13;1.20;;;0.43;;
24739;SDS011;45234;48.148;17.128;2023-02-25T06:23:40;1.02;;;0.68;;
24739;SDS011;45234;48.148;17.128;2023-02-25T06:26:08;1.50;;;0.80;;
24739;SDS011;45234;48.148;17.128;2023-02-25T06:28:38;1.52;;;0.68;;
24739;SDS011;45234;48.148;17.128;2023-02-25T06:31:08;1.52;;;0.70;;
24739;SDS011;45234;48.148;17.128;2023-02-25T06:33:37;1.08;;;0.70;;
24739;SDS011;45234;48.148;17.128;2023-02-25T06:36:05;1.48;;;0.80;;
24739;SDS011;45234;48.148;17.128;2023-02-25T06:38:33;1.02;;;0.80;;
24739;SDS011;45234;48.148;17.128;2023-02-25T06:41:05;1.00;;;0.70;;
24739;SDS011;45234;48.148;17.128;2023-02-25T06:43:33;0.73;;;0.60;;
24739;SDS011;45234;48.148;17.128;2023-02-25T06:46:05;1.98;;;0.60;;
24739;SDS011;45234;48.148;17.128;2023-02-25T06:48:34;0.85;;;0.50;;
24739;SDS011;45234;48.148;17.128;2023-02-25T06:51:01;1.02;;;0.50;;
24739;SDS011;45234;48.148;17.128;2023-02-25T06:53:36;0.70;;;0.50;;
24739;SDS011;45234;48.148;17.128;2023-02-25T06:56:04;2.42;;;0.50;;
24739;SDS011;45234;48.148;17.128;2023-02-25T06:58:33;0.70;;;0.40;;
24739;SDS011;45234;48.148;17.128;2023-02-25T07:01:04;1.20;;;0.90;;
24739;SDS011;45234;48.148;17.128;2023-02-25T07:03:32;0.73;;;0.40;;
24739;SDS011;45234;48.148;17.128;2023-02-25T07:05:59;1.63;;;0.60;;
24739;SDS011;45234;48.148;17.128;2023-02-25T07:08:25;0.75;;;0.55;;
24739;SDS011;45234;48.148;17.128;2023-02-25T07:10:52;1.27;;;0.65;;
24739;SDS011;45234;48.148;17.128;2023-02-25T07:13:19;0.70;;;0.50;;
24739;SDS011;45234;48.148;17.128;2023-02-25T07:15:46;0.68;;;0.60;;
24739;SDS011;45234;48.148;17.128;2023-02-25T07:18:13;1.00;;;0.50;;
24739;SDS011;45234;48.148;17.128;2023-02-25T07:20:40;1.00;;;0.60;;
24739;SDS011;45234;48.148;17.128;2023-02-25T07:23:07;0.60;;;0.60;;
24739;SDS011;45234;48.148;17.128;2023-02-25T07:25:34;1.00;;;0.50;;
24739;SDS011;45234;48.148;17.128;2023-02-25T07:28:03;2.33;;;0.70;;
24739;SDS011;45234;48.148;17.128;2023-02-25T07:30:30;1.38;;;0.50;;
24739;SDS011;45234;48.148;17.128;2023-02-25T07:32:57;1.15;;;0.65;;
24739;SDS011;45234;48.148;17.128;2023-02-25T07:35:24;0.90;;;0.68;;
24739;SDS011;45234;48.148;17.128;2023-02-25T07:37:51;1.83;;;1.00;;
24739;SDS011;45234;48.148;17.128;2023-02-25T07:40:19;0.70;;;0.57;;
24739;SDS011;45234;48.148;17.128;2023-02-25T07:42:46;0.80;;;0.70;;
24739;SDS011;45234;48.148;17.128;2023-02-25T07:45:12;1.00;;;0.70;;
24739;SDS011;45234;48.148;17.128;2023-02-25T07:47:39;1.25;;;0.70;;
24739;SDS011;45234;48.148;17.128;2023-02-25T07:50:06;3.22;;;0.73;;
24739;SDS011;45234;48.148;17.128;2023-02-25T07:52:37;2.13;;;0.80;;
24739;SDS011;45234;48.148;17.128;2023-02-25T07:55:05;2.55;;;0.95;;
24739;SDS011;45234;48.148;17.128;2023-02-25T07:57:32;1.40;;;0.70;;
24739;SDS011;45234;48.148;17.128;2023-02-25T08:00:00;0.68;;;0.52;;
24739;SDS011;45234;48.148;17.128;2023-02-25T08:02:37;1.05;;;0.57;;
24739;SDS011;45234;48.148;17.128;2023-02-25T08:05:05;1.95;;;0.70;;
24739;SDS011;45234;48.148;17.128;2023-02-25T08:07:32;0.70;;;0.47;;
24739;SDS011;45234;48.148;17.128;2023-02-25T08:09:58;1.77;;;0.60;;
24739;SDS011;45234;48.148;17.128;2023-02-25T08:12:25;1.77;;;0.50;;
24739;SDS011;45234;48.148;17.128;2023-02-25T08:14:52;0.80;;;0.50;;
24739;SDS011;45234;48.148;17.128;2023-02-25T08:17:20;1.00;;;0.77;;
24739;SDS011;45234;48.148;17.128;2023-02-25T08:19:47;2.10;;;1.00;;
24739;SDS011;45234;48.148;17.128;2023-02-25T08:22:13;2.88;;;1.27;;
24739;SDS011;45234;48.148;17.128;2023-02-25T08:24:40;1.48;;;0.57;;
24739;SDS011;45234;48.148;17.128;2023-02-25T08:27:07;3.00;;;2.15;;
24739;SDS011;45234;48.148;17.128;2023-02-25T08:29:35;1.88;;;1.33;;
24739;SDS011;45234;48.148;17.128;2023-02-25T08:32:06;0.70;;;0.40;;
24739;SDS011;45234;48.148;17.128;2023-02-25T08:34:33;1.27;;;0.40;;
24739;SDS011;45234;48.148;17.128;2023-02-25T08:37:00;1.35;;;0.50;;
24739;SDS011;45234;48.148;17.128;2023-02-25T08:39:27;0.70;;;0.50;;
24739;SDS011;45234;48.148;17.128;2023-02-25T08:41:55;0.85;;;0.60;;
24739;SDS011;45234;48.148;17.128;2023-02-25T08:44:22;2.17;;;0.55;;
24739;SDS011;45234;48.148;17.128;2023-02-25T08:46:54;2.67;;;0.60;;
24739;SDS011;45234;48.148;17.128;2023-02-25T08:49:21;1.98;;;0.70;;
24739;SDS011;45234;48.148;17.128;2023-02-25T08:51:51;1.23;;;0.60;;
24739;SDS011;45234;48.148;17.128;2023-02-25T08:54:18;1.45;;;0.50;;
24739;SDS011;45234;48.148;17.128;2023-02-25T08:56:44;1.92;;;0.82;;
24739;SDS011;45234;48.148;17.128;2023-02-25T08:59:14;1.40;;;0.80;;
24739;SDS011;45234;48.148;17.128;2023-02-25T09:01:41;0.98;;;0.50;;
24739;SDS011;45234;48.148;17.128;2023-02-25T09:04:12;1.13;;;0.73;;
24739;SDS011;45234;48.148;17.128;2023-02-25T09:06:42;3.97;;;0.63;;
24739;SDS011;45234;48.148;17.128;2023-02-25T09:09:12;1.20;;;0.57;;
24739;SDS011;45234;48.148;17.128;2023-02-25T09:11:40;2.60;;;0.70;;
24739;SDS011;45234;48.148;17.128;2023-02-25T09:14:08;1.10;;;0.80;;
24739;SDS011;45234;48.148;17.128;2023-02-25T09:16:36;1.35;;;0.73;;
24739;SDS011;45234;48.148;17.128;2023-02-25T09:19:03;1.85;;;0.60;;
24739;SDS011;45234;48.148;17.128;2023-02-25T09:21:31;2.25;;;0.68;;
24739;SDS011;45234;48.148;17.128;2023-02-25T09:23:58;0.90;;;0.60;;
24739;SDS011;45234;48.148;17.128;2023-02-25T09:26:25;3.40;;;0.93;;
24739;SDS011;45234;48.148;17.128;2023-02-25T09:28:51;3.08;;;0.80;;
24739;SDS011;45234;48.148;17.128;2023-02-25T09:31:18;1.80;;;0.70;;
24739;SDS011;45234;48.148;17.128;2023-02-25T09:33:46;4.57;;;0.80;;
24739;SDS011;45234;48.148;17.128;2023-02-25T09:36:14;0.75;;;0.60;;
24739;SDS011;45234;48.148;17.128;2023-02-25T09:38:43;0.95;;;0.80;;
24739;SDS011;45234;48.148;17.128;2023-02-25T09:46:51;1.77;;;0.85;;
24739;SDS011;45234;48.148;17.128;2023-02-25T09:49:45;1.10;;;0.80;;
24739;SDS011;45234;48.148;17.128;2023-02-25T09:52:31;0.98;;;0.60;;
24739;SDS011;45234;48.148;17.128;2023-02-25T09:58:01;1.20;;;0.80;;
24739;SDS011;45234;48.148;17.128;2023-02-25T10:00:39;1.08;;;0.80;;
24739;SDS011;45234;48.148;17.128;2023-02-25T10:06:49;1.90;;;0.88;;
24739;SDS011;45234;48.148;17.128;2023-02-25T10:17:16;2.25;;;0.90;;
24739;SDS011;45234;48.148;17.128;2023-02-25T10:22:48;1.05;;;0.77;;
24739;SDS011;45234;48.148;17.128;2023-02-25T10:25:36;2.83;;;0.85;;
24739;SDS011;45234;48.148;17.128;2023-02-25T10:28:15;1.20;;;0.75;;
24739;SDS011;45234;48.148;17.128;2023-02-25T10:30:47;2.85;;;0.88;;
24739;SDS011;45234;48.148;17.128;2023-02-25T10:33:25;2.85;;;1.08;;
24739;SDS011;45234;48.148;17.128;2023-02-25T10:35:58;1.38;;;0.98;;
24739;SDS011;45234;48.148;17.128;2023-02-25T10:38:29;1.40;;;0.68;;
24739;SDS011;45234;48.148;17.128;2023-02-25T10:40:56;3.03;;;0.80;;
24739;SDS011;45234;48.148;17.128;2023-02-25T10:43:24;2.38;;;0.93;;
24739;SDS011;45234;48.148;17.128;2023-02-25T10:48:30;0.73;;;0.43;;
24739;SDS011;45234;48.148;17.128;2023-02-25T10:51:06;1.13;;;0.40;;
24739;SDS011;45234;48.148;17.128;2023-02-25T10:53:38;0.60;;;0.40;;
24739;SDS011;45234;48.148;17.128;2023-02-25T10:56:17;0.77;;;0.45;;
24739;SDS011;45234;48.148;17.128;2023-02-25T11:01:46;1.05;;;0.40;;
24739;SDS011;45234;48.148;17.128;2023-02-25T11:04:16;1.05;;;0.43;;
24739;SDS011;45234;48.148;17.128;2023-02-25T11:06:45;1.15;;;0.40;;
24739;SDS011;45234;48.148;17.128;2023-02-25T11:14:28;1.33;;;0.30;;
24739;SDS011;45234;48.148;17.128;2023-02-25T11:19:47;0.77;;;0.40;;
24739;SDS011;45234;48.148;17.128;2023-02-25T11:22:33;1.23;;;0.40;;
24739;SDS011;45234;48.148;17.128;2023-02-25T11:25:06;0.60;;;0.50;;
24739;SDS011;45234;48.148;17.128;2023-02-25T11:27:46;1.60;;;0.52;;
24739;SDS011;45234;48.148;17.128;2023-02-25T11:30:20;3.85;;;0.43;;
24739;SDS011;45234;48.148;17.128;2023-02-25T11:32:57;0.90;;;0.60;;
24739;SDS011;45234;48.148;17.128;2023-02-25T11:35:32;2.40;;;0.50;;
24739;SDS011;45234;48.148;17.128;2023-02-25T11:38:18;1.15;;;0.68;;
24739;SDS011;45234;48.148;17.128;2023-02-25T11:40:51;4.80;;;0.98;;
24739;SDS011;45234;48.148;17.128;2023-02-25T11:43:19;2.33;;;1.08;;
24739;SDS011;45234;48.148;17.128;2023-02-25T11:45:51;5.00;;;0.90;;
24739;SDS011;45234;48.148;17.128;2023-02-25T11:48:22;3.17;;;0.90;;
24739;SDS011;45234;48.148;17.128;2023-02-25T11:53:59;3.97;;;0.90;;
24739;SDS011;45234;48.148;17.128;2023-02-25T11:56:50;1.67;;;1.15;;
24739;SDS011;45234;48.148;17.128;2023-02-25T11:59:44;2.30;;;1.02;;
24739;SDS011;45234;48.148;17.128;2023-02-25T12:03:23;1.67;;;0.60;;
24739;SDS011;45234;48.148;17.128;2023-02-25T12:22:14;0.95;;;0.50;;
24739;SDS011;45234;48.148;17.128;2023-02-25T12:30:21;0.65;;;0.40;;
24739;SDS011;45234;48.148;17.128;2023-02-25T12:35:54;1.95;;;0.70;;
24739;SDS011;45234;48.148;17.128;2023-02-25T12:43:51;1.95;;;0.70;;
24739;SDS011;45234;48.148;17.128;2023-02-25T12:52:05;3.80;;;1.13;;
24739;SDS011;45234;48.148;17.128;2023-02-25T12:54:59;4.15;;;1.38;;
24739;SDS011;45234;48.148;17.128;2023-02-25T13:03:08;2.88;;;1.10;;
24739;SDS011;45234;48.148;17.128;2023-02-25T13:22:50;1.08;;;0.70;;
24739;SDS011;45234;48.148;17.128;2023-02-25T13:25:44;2.42;;;0.88;;
24739;SDS011;45234;48.148;17.128;2023-02-25T13:31:20;3.97;;;1.00;;
24739;SDS011;45234;48.148;17.128;2023-02-25T13:50:47;4.30;;;1.30;;
24739;SDS011;45234;48.148;17.128;2023-02-25T14:10:53;2.70;;;1.08;;
24739;SDS011;45234;48.148;17.128;2023-02-25T14:16:14;3.13;;;0.97;;
24739;SDS011;45234;48.148;17.128;2023-02-25T14:19:04;4.63;;;1.13;;
24739;SDS011;45234;48.148;17.128;2023-02-25T14:24:33;1.53;;;0.80;;
24739;SDS011;45234;48.148;17.128;2023-02-25T14:33:07;1.55;;;1.00;;
24739;SDS011;45234;48.148;17.128;2023-02-25T14:40:38;4.72;;;0.93;;
24739;SDS011;45234;48.148;17.128;2023-02-25T14:59:56;2.78;;;1.23;;
24739;SDS011;45234;48.148;17.128;2023-02-25T15:03:00;1.67;;;0.90;;
24739;SDS011;45234;48.148;17.128;2023-02-25T15:14:34;1.80;;;0.90;;
24739;SDS011;45234;48.148;17.128;2023-02-25T15:20:36;1.38;;;0.88;;
24739;SDS011;45234;48.148;17.128;2023-02-25T15:23:17;2.63;;;1.00;;
24739;SDS011;45234;48.148;17.128;2023-02-25T15:28:38;3.63;;;1.13;;
24739;SDS011;45234;48.148;17.128;2023-02-25T15:37:31;3.40;;;1.25;;
24739;SDS011;45234;48.148;17.128;2023-02-25T15:42:47;6.20;;;1.50;;
24739;SDS011;45234;48.148;17.128;2023-02-25T15:50:49;3.88;;;1.75;;
24739;SDS011;45234;48.148;17.128;2023-02-25T15:58:41;1.95;;;1.45;;
24739;SDS011;45234;48.148;17.128;2023-02-25T16:03:51;4.45;;;1.75;;
24739;SDS011;45234;48.148;17.128;2023-02-25T16:06:19;3.80;;;2.20;;
24739;SDS011;45234;48.148;17.128;2023-02-25T16:11:35;4.22;;;1.40;;
24739;SDS011;45234;48.148;17.128;2023-02-25T16:14:16;6.32;;;2.20;;
24739;SDS011;45234;48.148;17.128;2023-02-25T16:17:35;3.22;;;1.30;;
24739;SDS011;45234;48.148;17.128;2023-02-25T16:19:36;3.70;;;1.33;;
24739;SDS011;45234;48.148;17.128;2023-02-25T16:22:06;2.70;;;1.48;;
24739;SDS011;45234;48.148;17.128;2023-02-25T16:24:51;4.05;;;1.50;;
24739;SDS011;45234;48.148;17.128;2023-02-25T16:30:30;3.40;;;1.70;;
24739;SDS011;45234;48.148;17.128;2023-02-25T16:33:18;2.83;;;0.95;;
24739;SDS011;45234;48.148;17.128;2023-02-25T16:36:07;4.07;;;1.85;;
24739;SDS011;45234;48.148;17.128;2023-02-25T16:38:55;1.50;;;1.05;;
24739;SDS011;45234;48.148;17.128;2023-02-25T16:41:27;3.78;;;0.95;;
24739;SDS011;45234;48.148;17.128;2023-02-25T16:44:03;2.55;;;1.17;;
24739;SDS011;45234;48.148;17.128;2023-02-25T16:46:36;3.40;;;1.48;;
24739;SDS011;45234;48.148;17.128;2023-02-25T16:49:10;2.90;;;1.40;;
24739;SDS011;45234;48.148;17.128;2023-02-25T16:52:02;2.33;;;1.10;;
24739;SDS011;45234;48.148;17.128;2023-02-25T16:54:32;3.33;;;1.55;;
24739;SDS011;45234;48.148;17.128;2023-02-25T16:57:03;4.68;;;1.75;;
24739;SDS011;45234;48.148;17.128;2023-02-25T16:59:32;3.03;;;1.10;;
24739;SDS011;45234;48.148;17.128;2023-02-25T17:04:45;2.25;;;1.00;;
24739;SDS011;45234;48.148;17.128;2023-02-25T17:12:23;1.55;;;0.80;;
24739;SDS011;45234;48.148;17.128;2023-02-25T17:15:14;1.08;;;0.57;;
24739;SDS011;45234;48.148;17.128;2023-02-25T17:17:41;2.30;;;0.90;;
24739;SDS011;45234;48.148;17.128;2023-02-25T17:20:15;1.17;;;0.57;;
24739;SDS011;45234;48.148;17.128;2023-02-25T17:22:48;2.97;;;1.05;;
24739;SDS011;45234;48.148;17.128;2023-02-25T17:25:15;2.70;;;0.77;;
24739;SDS011;45234;48.148;17.128;2023-02-25T17:27:44;1.80;;;0.70;;
24739;SDS011;45234;48.148;17.128;2023-02-25T17:33:02;4.35;;;1.13;;
24739;SDS011;45234;48.148;17.128;2023-02-25T17:35:30;2.05;;;1.35;;
24739;SDS011;45234;48.148;17.128;2023-02-25T17:37:57;1.38;;;0.80;;
24739;SDS011;45234;48.148;17.128;2023-02-25T17:40:25;1.60;;;0.80;;
24739;SDS011;45234;48.148;17.128;2023-02-25T17:45:51;2.10;;;0.98;;
24739;SDS011;45234;48.148;17.128;2023-02-25T17:48:26;3.40;;;1.02;;
24739;SDS011;45234;48.148;17.128;2023-02-25T17:50:59;3.20;;;0.60;;
24739;SDS011;45234;48.148;17.128;2023-02-25T17:56:15;2.42;;;0.90;;
24739;SDS011;45234;48.148;17.128;2023-02-25T17:58:50;2.08;;;1.10;;
24739;SDS011;45234;48.148;17.128;2023-02-25T18:01:19;1.30;;;0.60;;
24739;SDS011;45234;48.148;17.128;2023-02-25T18:03:52;3.28;;;1.48;;
24739;SDS011;45234;48.148;17.128;2023-02-25T18:06:26;2.30;;;1.20;;
24739;SDS011;45234;48.148;17.128;2023-02-25T18:09:03;2.05;;;1.20;;
24739;SDS011;45234;48.148;17.128;2023-02-25T18:11:37;2.00;;;1.13;;
24739;SDS011;45234;48.148;17.128;2023-02-25T18:17:22;3.38;;;2.05;;
24739;SDS011;45234;48.148;17.128;2023-02-25T18:19:50;1.90;;;1.00;;
24739;SDS011;45234;48.148;17.128;2023-02-25T18:24:56;2.95;;;1.70;;
24739;SDS011;45234;48.148;17.128;2023-02-25T18:27:28;3.42;;;1.13;;
24739;SDS011;45234;48.148;17.128;2023-02-25T18:30:16;4.05;;;1.30;;
24739;SDS011;45234;48.148;17.128;2023-02-25T18:32:45;2.03;;;1.27;;
24739;SDS011;45234;48.148;17.128;2023-02-25T18:35:12;1.98;;;1.13;;
24739;SDS011;45234;48.148;17.128;2023-02-25T18:37:40;1.98;;;0.98;;
24739;SDS011;45234;48.148;17.128;2023-02-25T18:40:16;3.05;;;1.10;;
24739;SDS011;45234;48.148;17.128;2023-02-25T18:42:54;3.15;;;1.48;;
24739;SDS011;45234;48.148;17.128;2023-02-25T18:45:23;2.00;;;1.17;;
24739;SDS011;45234;48.148;17.128;2023-02-25T18:47:51;3.15;;;1.35;;
24739;SDS011;45234;48.148;17.128;2023-02-25T18:50:22;2.38;;;1.38;;
24739;SDS011;45234;48.148;17.128;2023-02-25T18:52:50;3.42;;;2.08;;
24739;SDS011;45234;48.148;17.128;2023-02-25T18:55:21;2.35;;;1.30;;
24739;SDS011;45234;48.148;17.128;2023-02-25T18:57:50;1.77;;;1.20;;
24739;SDS011;45234;48.148;17.128;2023-02-25T19:00:18;3.83;;;1.65;;
24739;SDS011;45234;48.148;17.128;2023-02-25T19:05:17;2.50;;;1.17;;
24739;SDS011;45234;48.148;17.128;2023-02-25T19:07:45;25.92;;;12.93;;
24739;SDS011;45234;48.148;17.128;2023-02-25T19:10:22;1.45;;;1.15;;
24739;SDS011;45234;48.148;17.128;2023-02-25T19:12:50;2.80;;;1.52;;
24739;SDS011;45234;48.148;17.128;2023-02-25T19:15:24;2.90;;;1.67;;
24739;SDS011;45234;48.148;17.128;2023-02-25T19:17:51;2.03;;;1.10;;
24739;SDS011;45234;48.148;17.128;2023-02-25T19:20:18;2.72;;;1.60;;
24739;SDS011;45234;48.148;17.128;2023-02-25T19:22:47;5.35;;;2.60;;